Time;durP1;ratioP1;P1;durP2;ratioP2;P2;SDS_P1;SDS_P2;PMS_P1;PMS_P2;Temp;Humidity;BMP_temperature;BMP_pressure;BME280_temperature;BME280_humidity;BME280_pressure;Samples;Min_cycle;Max_cycle;Signal;HPM_P1;HPM_P2
2023/04/24 00:01:29;;;;;;;11.35;8.90;;;11.50;93.20;;;;;;5073860;28;20025;-48
2023/04/24 00:03:59;;;;;;;9.68;8.68;;;11.50;93.20;;;;;;5072025;28;20028;-48
2023/04/24 00:06:32;;;;;;;10.63;8.45;;;11.40;93.20;;;;;;5057811;28;20047;-49
2023/04/24 00:09:00;;;;;;;9.02;8.13;;;11.40;93.20;;;;;;5072587;28;20194;-48
2023/04/24 00:11:29;;;;;;;9.60;8.60;;;11.50;93.30;;;;;;5055801;28;20024;-49
2023/04/24 00:14:00;;;;;;;10.95;9.30;;;11.50;93.20;;;;;;5071984;28;20353;-48
2023/04/24 00:16:26;;;;;;;13.35;8.98;;;11.50;93.20;;;;;;5078502;28;20028;-48
2023/04/24 00:18:54;;;;;;;9.90;8.88;;;11.50;93.20;;;;;;5077114;28;20680;-46
2023/04/24 00:21:25;;;;;;;11.50;8.48;;;11.50;93.20;;;;;;5075538;28;20032;-46
2023/04/24 00:23:55;;;;;;;11.38;10.27;;;11.40;93.30;;;;;;5093299;28;20046;-46
2023/04/24 00:26:22;;;;;;;13.07;10.63;;;11.50;93.30;;;;;;5091337;28;20077;-46
2023/04/24 00:28:50;;;;;;;11.82;10.10;;;11.50;93.30;;;;;;5087946;28;20059;-46
2023/04/24 00:31:18;;;;;;;11.68;10.13;;;11.50;93.30;;;;;;5091122;28;20100;-46
2023/04/24 00:33:47;;;;;;;12.93;10.02;;;11.50;93.40;;;;;;5075841;28;20048;-48
2023/04/24 00:36:14;;;;;;;11.75;10.07;;;11.50;93.40;;;;;;5070844;28;20034;-46
2023/04/24 00:38:42;;;;;;;11.02;9.77;;;11.50;93.30;;;;;;5087191;28;20032;-48
2023/04/24 00:41:10;;;;;;;11.00;9.60;;;11.50;93.30;;;;;;5093046;28;20077;-47
2023/04/24 00:43:37;;;;;;;10.90;9.80;;;11.50;93.30;;;;;;5077801;28;20111;-45
2023/04/24 00:46:04;;;;;;;12.82;10.55;;;11.40;93.30;;;;;;5066196;28;20405;-50
2023/04/24 00:48:33;;;;;;;10.75;9.65;;;11.40;93.30;;;;;;5074319;28;20113;-48
2023/04/24 00:51:00;;;;;;;10.60;9.50;;;11.50;93.30;;;;;;5075118;28;20028;-48
2023/04/24 00:53:28;;;;;;;12.23;9.77;;;11.50;93.40;;;;;;5093057;28;20032;-46
2023/04/24 00:55:56;;;;;;;8.52;7.55;;;11.50;93.40;;;;;;5074523;28;20024;-46
2023/04/24 00:58:22;;;;;;;7.13;5.82;;;11.40;93.10;;;;;;5055359;28;20591;-46
2023/04/24 01:00:55;;;;;;;7.47;6.00;;;11.20;92.70;;;;;;5090543;28;20129;-46
2023/04/24 01:03:24;;;;;;;7.95;5.10;;;11.20;92.60;;;;;;5077231;28;20035;-45
2023/04/24 01:05:55;;;;;;;4.90;4.13;;;11.20;92.30;;;;;;5086433;28;20034;-45
2023/04/24 01:08:26;;;;;;;4.20;2.58;;;11.20;91.80;;;;;;5091359;28;20032;-46
2023/04/24 01:10:55;;;;;;;4.05;1.75;;;11.00;91.00;;;;;;5060739;28;20036;-46
2023/04/24 01:13:21;;;;;;;2.10;1.30;;;10.90;90.50;;;;;;5074751;28;20036;-45
2023/04/24 01:15:48;;;;;;;2.65;1.20;;;10.90;90.20;;;;;;5085334;28;20025;-44
2023/04/24 01:18:18;;;;;;;1.85;1.02;;;10.80;89.80;;;;;;5042866;28;20029;-47
2023/04/24 01:20:46;;;;;;;1.40;0.80;;;10.70;89.60;;;;;;5072412;28;20068;-45
2023/04/24 01:23:14;;;;;;;1.42;0.82;;;10.60;89.30;;;;;;5055543;28;20051;-47
2023/04/24 01:25:44;;;;;;;0.70;0.68;;;10.60;89.60;;;;;;5072211;28;20028;-44
2023/04/24 01:28:13;;;;;;;1.67;0.90;;;10.50;89.40;;;;;;5054556;28;20603;-44
2023/04/24 01:30:41;;;;;;;1.88;0.85;;;10.40;89.40;;;;;;5081232;28;20153;-45
2023/04/24 01:33:08;;;;;;;1.75;0.85;;;10.40;89.40;;;;;;5063880;28;20032;-44
2023/04/24 01:35:37;;;;;;;1.92;0.93;;;10.40;89.60;;;;;;5077930;28;20024;-46
2023/04/24 01:38:03;;;;;;;3.95;1.00;;;10.40;89.60;;;;;;5072082;28;20033;-46
2023/04/24 01:40:31;;;;;;;2.25;1.10;;;10.30;89.80;;;;;;5072337;28;20025;-49
2023/04/24 01:42:58;;;;;;;2.15;1.20;;;10.30;89.80;;;;;;5064217;28;20473;-47
2023/04/24 01:45:24;;;;;;;1.88;1.10;;;10.30;90.20;;;;;;5062584;28;20051;-46
2023/04/24 01:47:52;;;;;;;1.67;1.05;;;10.30;90.50;;;;;;5054481;28;20028;-46
2023/04/24 01:50:19;;;;;;;2.67;1.25;;;10.30;90.20;;;;;;5054952;28;20033;-46
2023/04/24 01:52:46;;;;;;;2.97;1.70;;;10.20;90.10;;;;;;5054159;28;20093;-47
2023/04/24 01:55:14;;;;;;;2.05;1.27;;;10.20;90.30;;;;;;5080893;28;20503;-46
2023/04/24 01:57:42;;;;;;;2.53;1.60;;;10.20;90.50;;;;;;5091072;28;20055;-45
2023/04/24 02:00:08;;;;;;;2.30;1.50;;;10.20;90.40;;;;;;5090194;28;20095;-45
2023/04/24 02:02:37;;;;;;;3.35;2.03;;;10.20;90.70;;;;;;5084125;28;20056;-45
2023/04/24 02:05:08;;;;;;;2.60;1.73;;;10.20;90.90;;;;;;5071891;28;20060;-46
2023/04/24 02:07:37;;;;;;;3.42;1.80;;;10.20;91.10;;;;;;5084926;28;20120;-46
2023/04/24 02:10:05;;;;;;;4.00;2.20;;;10.30;91.10;;;;;;5060966;28;20036;-45
2023/04/24 02:12:30;;;;;;;2.70;1.92;;;10.20;91.10;;;;;;5071871;28;20036;-45
2023/04/24 02:14:59;;;;;;;2.85;1.80;;;10.10;91.20;;;;;;5076564;28;20085;-46
2023/04/24 02:17:27;;;;;;;2.75;1.92;;;10.10;91.50;;;;;;5072187;28;20056;-46
2023/04/24 02:19:55;;;;;;;3.90;1.77;;;10.10;91.60;;;;;;5054154;28;20506;-46
2023/04/24 02:22:21;;;;;;;5.03;2.80;;;10.10;91.70;;;;;;5072019;28;20032;-46
2023/04/24 02:24:46;;;;;;;5.90;3.00;;;10.10;91.70;;;;;;5075162;28;20081;-46
2023/04/24 02:27:12;;;;;;;4.82;3.08;;;10.00;91.90;;;;;;5091462;28;20101;-46
2023/04/24 02:29:40;;;;;;;4.15;3.17;;;10.00;92.00;;;;;;5073733;28;20071;-46
2023/04/24 02:32:11;;;;;;;4.38;3.00;;;10.00;92.30;;;;;;5090775;28;20028;-47
2023/04/24 02:34:39;;;;;;;5.00;3.50;;;10.00;92.50;;;;;;5079512;28;20454;-46
2023/04/24 02:37:05;;;;;;;6.47;3.60;;;9.90;92.30;;;;;;5078304;28;20150;-47
2023/04/24 02:39:31;;;;;;;4.30;3.47;;;10.00;92.60;;;;;;5094069;28;20493;-47
2023/04/24 02:41:58;;;;;;;5.00;3.85;;;9.90;92.50;;;;;;5076844;28;20135;-47
2023/04/24 02:44:25;;;;;;;4.78;4.28;;;9.90;92.60;;;;;;5094229;28;20024;-51
2023/04/24 02:46:53;;;;;;;5.85;4.45;;;9.90;92.90;;;;;;5083996;28;20048;-48
2023/04/24 02:49:20;;;;;;;5.30;4.38;;;9.90;93.00;;;;;;5084529;28;20020;-48
2023/04/24 02:51:47;;;;;;;5.53;4.75;;;9.90;92.90;;;;;;5084825;28;20042;-49
2023/04/24 02:54:17;;;;;;;6.57;4.72;;;9.90;93.00;;;;;;5076846;28;20085;-48
2023/04/24 02:56:48;;;;;;;5.07;4.55;;;9.90;93.10;;;;;;5094032;28;20437;-47
2023/04/24 02:59:16;;;;;;;5.28;4.40;;;9.90;93.10;;;;;;5068901;28;20047;-47
2023/04/24 03:01:44;;;;;;;4.90;3.88;;;9.90;93.00;;;;;;5081249;28;20032;-47
2023/04/24 03:04:12;;;;;;;6.10;4.28;;;9.80;92.90;;;;;;5088208;28;20043;-47
2023/04/24 03:06:40;;;;;;;5.25;4.50;;;9.80;92.80;;;;;;5094454;28;20477;-47
2023/04/24 03:09:07;;;;;;;5.10;4.03;;;9.80;92.90;;;;;;5091481;28;20720;-46
2023/04/24 03:11:32;;;;;;;6.07;4.32;;;9.70;92.90;;;;;;5068277;28;20330;-46
2023/04/24 03:13:59;;;;;;;5.38;4.80;;;9.70;92.70;;;;;;5056291;28;20055;-46
2023/04/24 03:16:26;;;;;;;5.53;4.63;;;9.70;92.70;;;;;;5090772;28;20040;-46
2023/04/24 03:18:53;;;;;;;5.55;4.93;;;9.70;92.70;;;;;;5094527;28;20121;-46
2023/04/24 03:21:20;;;;;;;6.82;5.07;;;9.70;92.70;;;;;;5089978;28;20044;-46
2023/04/24 03:23:48;;;;;;;5.72;4.78;;;9.70;92.80;;;;;;5057123;28;20102;-46
2023/04/24 03:26:15;;;;;;;8.32;5.35;;;9.70;92.70;;;;;;5088902;28;20043;-46
2023/04/24 03:28:42;;;;;;;8.25;5.93;;;9.70;92.80;;;;;;5094491;28;20031;-48
2023/04/24 03:31:10;;;;;;;6.10;5.13;;;9.70;92.70;;;;;;5090939;28;20020;-47
2023/04/24 03:33:38;;;;;;;6.13;5.50;;;9.70;92.90;;;;;;5088674;28;20104;-47
2023/04/24 03:36:04;;;;;;;7.20;6.25;;;9.70;93.00;;;;;;5073850;28;20063;-46
2023/04/24 03:38:31;;;;;;;7.15;5.45;;;9.70;92.90;;;;;;5073998;28;20055;-46
2023/04/24 03:40:58;;;;;;;6.75;5.80;;;9.70;93.00;;;;;;5073595;28;20810;-47
2023/04/24 03:43:24;;;;;;;6.95;6.10;;;9.70;93.00;;;;;;5073999;28;20036;-52
2023/04/24 03:45:50;;;;;;;7.55;6.70;;;9.70;93.00;;;;;;5090548;28;20119;-51
2023/04/24 03:48:18;;;;;;;8.85;6.82;;;9.70;93.00;;;;;;5092487;28;20415;-50
2023/04/24 03:50:45;;;;;;;8.35;7.30;;;9.70;93.00;;;;;;5089678;28;20028;-48
2023/04/24 03:53:11;;;;;;;8.05;6.85;;;9.70;93.10;;;;;;5071586;28;20019;-49
2023/04/24 03:55:38;;;;;;;7.82;7.03;;;9.60;93.10;;;;;;5073542;28;20020;-51
2023/04/24 03:58:03;;;;;;;7.68;6.57;;;9.60;93.10;;;;;;5092526;28;20434;-55
2023/04/24 04:00:33;;;;;;;9.60;7.95;;;9.70;93.20;;;;;;5069539;28;20053;-52
2023/04/24 04:03:00;;;;;;;9.27;8.27;;;9.60;93.20;;;;;;5084309;28;20025;-53
2023/04/24 04:05:26;;;;;;;9.52;8.45;;;9.60;93.30;;;;;;5082086;28;20047;-52
2023/04/24 04:07:55;;;;;;;11.63;9.48;;;9.60;93.40;;;;;;5073129;28;20036;-51
2023/04/24 04:10:28;;;;;;;10.15;8.88;;;9.50;93.40;;;;;;5092757;28;20028;-52
2023/04/24 04:12:58;;;;;;;10.65;8.98;;;9.60;93.50;;;;;;5079985;28;20335;-54
2023/04/24 04:15:27;;;;;;;;;;;9.60;93.40;;;;;;5082799;28;20445;-52
2023/04/24 04:17:54;;;;;;;9.60;8.45;;;9.60;93.40;;;;;;5076511;28;19912;-54
2023/04/24 04:20:22;;;;;;;10.75;9.27;;;9.70;93.50;;;;;;5092941;28;20381;-57
2023/04/24 04:22:48;;;;;;;10.43;9.20;;;9.60;93.50;;;;;;5074448;28;20119;-51
2023/04/24 04:25:13;;;;;;;10.95;8.88;;;9.60;93.50;;;;;;5075559;28;20560;-51
2023/04/24 04:27:41;;;;;;;12.35;10.18;;;9.60;93.50;;;;;;5073481;28;20040;-49
2023/04/24 04:30:09;;;;;;;11.93;10.25;;;9.60;93.60;;;;;;5079307;28;20025;-49
2023/04/24 04:32:36;;;;;;;12.23;9.23;;;9.60;93.70;;;;;;5074093;28;20472;-48
2023/04/24 04:35:06;;;;;;;12.35;9.45;;;9.60;93.50;;;;;;5089656;28;20432;-57
2023/04/24 04:37:35;;;;;;;13.35;10.40;;;9.70;93.60;;;;;;5075145;28;20355;-53
2023/04/24 04:40:11;;;;;;;11.95;10.63;;;9.60;93.50;;;;;;5055082;28;20036;-55
2023/04/24 04:42:48;;;;;;;11.40;9.63;;;9.60;93.50;;;;;;5073029;28;20036;-53
2023/04/24 04:45:16;;;;;;;12.68;10.23;;;9.60;93.50;;;;;;5077455;28;20024;-53
2023/04/24 04:47:44;;;;;;;11.40;9.70;;;9.60;93.50;;;;;;5070637;28;20039;-53
2023/04/24 04:50:11;;;;;;;10.75;9.55;;;9.60;93.50;;;;;;5071761;28;20021;-52
2023/04/24 04:52:38;;;;;;;11.23;9.80;;;9.60;93.50;;;;;;5071422;28;20391;-51
2023/04/24 04:55:06;;;;;;;11.93;10.55;;;9.60;93.60;;;;;;5078723;28;20039;-51
2023/04/24 04:57:31;;;;;;;12.55;10.30;;;9.60;93.50;;;;;;5078031;28;20106;-50
2023/04/24 04:59:57;;;;;;;13.60;11.00;;;9.50;93.60;;;;;;5087498;28;20103;-48
2023/04/24 05:02:25;;;;;;;12.27;10.98;;;9.60;93.50;;;;;;5085513;28;20088;-47
2023/04/24 05:04:52;;;;;;;13.32;11.25;;;9.60;93.60;;;;;;5089461;28;20110;-49
2023/04/24 05:07:21;;;;;;;11.38;10.15;;;9.60;93.50;;;;;;5088971;28;20032;-50
2023/04/24 05:09:46;;;;;;;12.18;10.40;;;9.60;93.40;;;;;;5090108;28;20080;-51
2023/04/24 05:12:16;;;;;;;11.00;9.80;;;9.60;93.40;;;;;;5090475;28;20024;-50
2023/04/24 05:14:46;;;;;;;13.30;9.20;;;9.60;93.30;;;;;;5088814;28;20028;-55
2023/04/24 05:17:14;;;;;;;11.60;8.90;;;9.60;93.40;;;;;;5064994;28;20036;-54
2023/04/24 05:19:42;;;;;;;11.25;8.95;;;9.60;93.30;;;;;;5092635;28;20040;-50
2023/04/24 05:22:11;;;;;;;11.27;9.05;;;9.60;93.20;;;;;;5069916;28;20096;-51
2023/04/24 05:24:39;;;;;;;10.15;8.15;;;9.60;93.20;;;;;;5090495;28;20369;-49
2023/04/24 05:27:06;;;;;;;9.00;7.20;;;9.60;93.20;;;;;;5069820;28;20449;-52
2023/04/24 05:29:34;;;;;;;9.95;7.53;;;9.70;93.10;;;;;;5090988;28;20054;-50
2023/04/24 05:32:01;;;;;;;8.50;6.65;;;9.60;93.10;;;;;;5062593;28;20027;-50
2023/04/24 05:34:28;;;;;;;8.80;7.75;;;9.70;93.00;;;;;;5085515;28;20066;-49
2023/04/24 05:36:55;;;;;;;8.45;7.45;;;9.70;93.00;;;;;;5059403;28;20500;-48
2023/04/24 05:39:26;;;;;;;8.57;7.55;;;9.80;93.00;;;;;;5091799;28;20046;-48
2023/04/24 05:41:53;;;;;;;9.68;7.35;;;9.80;93.00;;;;;;5089480;28;20035;-51
2023/04/24 05:44:19;;;;;;;9.40;7.63;;;9.90;92.80;;;;;;5090988;28;20028;-49
2023/04/24 05:46:45;;;;;;;9.73;7.68;;;9.90;92.80;;;;;;5090840;28;20457;-54
2023/04/24 05:49:12;;;;;;;11.05;7.57;;;9.90;92.60;;;;;;5089839;28;20028;-54
2023/04/24 05:51:41;;;;;;;8.30;6.82;;;10.00;92.50;;;;;;5090195;28;20661;-53
2023/04/24 05:54:10;;;;;;;8.27;7.15;;;10.00;92.50;;;;;;5071673;28;20501;-48
2023/04/24 05:56:38;;;;;;;8.00;6.72;;;10.00;92.30;;;;;;5090922;28;20039;-48
2023/04/24 05:59:03;;;;;;;8.48;7.15;;;10.00;92.50;;;;;;5051606;28;20036;-47
2023/04/24 06:01:29;;;;;;;8.82;7.63;;;9.90;92.30;;;;;;5067828;28;20043;-49
2023/04/24 06:03:59;;;;;;;8.27;6.65;;;9.90;92.10;;;;;;5068054;28;20032;-47
2023/04/24 06:06:25;;;;;;;10.70;6.70;;;9.90;92.30;;;;;;5093107;28;20043;-50
2023/04/24 06:08:52;;;;;;;7.65;6.70;;;9.90;92.40;;;;;;5090126;28;20369;-49
2023/04/24 06:11:19;;;;;;;8.52;6.93;;;9.90;92.30;;;;;;5063390;28;20028;-47
2023/04/24 06:13:48;;;;;;;8.15;6.70;;;9.90;92.30;;;;;;5086749;28;20097;-46
2023/04/24 06:16:15;;;;;;;7.80;6.85;;;9.90;92.30;;;;;;5086783;28;20032;-46
2023/04/24 06:18:42;;;;;;;9.63;7.07;;;9.90;92.30;;;;;;5090499;28;20134;-46
2023/04/24 06:21:09;;;;;;;8.68;7.03;;;9.90;92.20;;;;;;5086653;28;20414;-46
2023/04/24 06:23:36;;;;;;;10.15;6.72;;;9.90;92.20;;;;;;5090524;28;20027;-46
2023/04/24 06:26:03;;;;;;;8.13;6.78;;;9.90;92.30;;;;;;5088213;28;20074;-46
2023/04/24 06:28:30;;;;;;;7.22;6.40;;;9.90;92.40;;;;;;5089565;28;20461;-45
2023/04/24 06:30:59;;;;;;;8.65;6.85;;;10.00;92.40;;;;;;5083610;28;20486;-46
2023/04/24 06:33:25;;;;;;;8.50;6.55;;;10.00;92.30;;;;;;5086042;28;20096;-47
2023/04/24 06:35:50;;;;;;;8.20;6.45;;;10.10;92.40;;;;;;5091931;28;20453;-46
2023/04/24 06:38:17;;;;;;;8.32;7.13;;;10.10;92.40;;;;;;5073803;28;20824;-46
2023/04/24 06:40:45;;;;;;;10.68;6.63;;;10.20;92.40;;;;;;5073262;28;20119;-45
2023/04/24 06:43:14;;;;;;;11.50;7.78;;;10.20;92.30;;;;;;5087470;28;20106;-46
2023/04/24 06:45:43;;;;;;;6.88;6.18;;;10.20;92.20;;;;;;5066402;28;20505;-46
2023/04/24 06:48:10;;;;;;;8.83;7.20;;;10.20;92.10;;;;;;5083354;28;20055;-48
2023/04/24 06:50:37;;;;;;;7.03;6.00;;;10.20;92.20;;;;;;5090675;28;20050;-47
2023/04/24 06:53:04;;;;;;;8.15;6.30;;;10.20;92.20;;;;;;5070914;28;20036;-46
2023/04/24 06:55:30;;;;;;;8.07;6.70;;;10.30;92.40;;;;;;5086962;28;20074;-47
2023/04/24 06:57:57;;;;;;;7.97;6.15;;;10.40;92.40;;;;;;5087667;28;20016;-46
2023/04/24 07:00:24;;;;;;;7.35;6.18;;;10.40;92.40;;;;;;5088368;28;20063;-47
2023/04/24 07:02:52;;;;;;;7.47;5.60;;;10.50;92.00;;;;;;5090802;28;20085;-46
2023/04/24 07:05:23;;;;;;;6.75;5.70;;;10.50;91.80;;;;;;5087553;28;20040;-45
2023/04/24 07:07:51;;;;;;;6.32;5.47;;;10.60;91.70;;;;;;5082747;28;20089;-46
2023/04/24 07:10:17;;;;;;;6.68;5.07;;;10.60;91.60;;;;;;5086146;28;20479;-45
2023/04/24 07:12:46;;;;;;;6.38;5.50;;;10.60;91.70;;;;;;5086920;28;20044;-46
2023/04/24 07:15:12;;;;;;;6.03;5.03;;;10.60;91.70;;;;;;5085769;28;20024;-46
2023/04/24 07:17:42;;;;;;;6.22;4.45;;;10.60;91.30;;;;;;5089107;28;20034;-45
2023/04/24 07:20:11;;;;;;;6.35;4.97;;;10.60;90.90;;;;;;5089746;28;20123;-45
2023/04/24 07:22:41;;;;;;;5.88;4.57;;;10.60;90.90;;;;;;5085213;28;20027;-45
2023/04/24 07:25:09;;;;;;;6.07;5.03;;;10.70;91.20;;;;;;5086461;28;20028;-45
2023/04/24 07:27:35;;;;;;;5.13;4.47;;;10.80;90.90;;;;;;5089812;28;20028;-44
2023/04/24 07:30:03;;;;;;;4.93;3.95;;;10.90;90.90;;;;;;5070229;28;20492;-46
2023/04/24 07:32:30;;;;;;;4.95;4.10;;;10.70;90.50;;;;;;5046661;28;20029;-45
2023/04/24 07:34:57;;;;;;;5.03;4.00;;;10.70;90.40;;;;;;5085655;28;20109;-46
2023/04/24 07:37:23;;;;;;;4.40;3.72;;;10.80;90.90;;;;;;5051694;28;20354;-43
2023/04/24 07:39:50;;;;;;;4.70;4.15;;;10.80;90.70;;;;;;5089263;28;20039;-44
2023/04/24 07:42:18;;;;;;;5.25;4.25;;;10.80;90.60;;;;;;5091096;28;20127;-43
2023/04/24 07:44:47;;;;;;;5.40;4.43;;;10.80;90.60;;;;;;5085815;28;20036;-44
2023/04/24 07:47:17;;;;;;;5.65;4.30;;;10.90;90.20;;;;;;5088548;28;20043;-43
2023/04/24 07:49:43;;;;;;;;;;;10.90;90.40;;;;;;5086525;28;20059;-44
2023/04/24 07:52:12;;;;;;;5.68;3.90;;;10.90;90.50;;;;;;5085252;28;19908;-42
2023/04/24 07:54:37;;;;;;;7.15;4.47;;;10.80;89.90;;;;;;5087574;28;20376;-42
2023/04/24 07:57:04;;;;;;;4.47;3.75;;;10.80;90.00;;;;;;5080792;28;20135;-43
2023/04/24 07:59:33;;;;;;;4.60;3.67;;;10.90;90.50;;;;;;5070071;28;20104;-45
2023/04/24 08:02:01;;;;;;;6.75;4.07;;;11.00;90.30;;;;;;5083986;28;20098;-48
2023/04/24 08:04:29;;;;;;;4.32;3.53;;;11.10;89.90;;;;;;5089149;28;20038;-46
2023/04/24 08:06:55;;;;;;;4.35;3.30;;;11.20;89.70;;;;;;5082840;28;20037;-44
2023/04/24 08:09:22;;;;;;;4.40;3.25;;;11.20;89.60;;;;;;5070204;28;20024;-48
2023/04/24 08:11:49;;;;;;;4.10;3.35;;;11.20;89.20;;;;;;5070676;28;20151;-47
2023/04/24 08:14:17;;;;;;;5.78;3.80;;;11.20;89.10;;;;;;5087858;28;20036;-46
2023/04/24 08:16:44;;;;;;;4.82;3.78;;;11.30;89.70;;;;;;5068913;28;20032;-45
2023/04/24 08:19:16;;;;;;;4.07;3.50;;;11.30;89.80;;;;;;5087493;28;20044;-49
2023/04/24 08:21:43;;;;;;;4.63;3.35;;;11.30;89.90;;;;;;5089923;28;20024;-46
2023/04/24 08:24:10;;;;;;;5.53;3.78;;;11.30;90.10;;;;;;5089248;28;20028;-53
2023/04/24 08:26:39;;;;;;;4.88;2.75;;;11.40;90.40;;;;;;5070201;28;20452;-53
2023/04/24 08:29:09;;;;;;;4.50;3.47;;;11.40;90.40;;;;;;5087950;28;20046;-52
2023/04/24 08:31:36;;;;;;;3.40;2.75;;;11.40;90.50;;;;;;5086172;28;20099;-51
2023/04/24 08:34:03;;;;;;;3.75;2.90;;;11.50;90.50;;;;;;5084434;28;20471;-48
2023/04/24 08:36:31;;;;;;;4.28;3.05;;;11.50;90.80;;;;;;5085861;28;20130;-49
2023/04/24 08:39:01;;;;;;;3.83;2.90;;;11.50;90.20;;;;;;5088938;28;20020;-52
2023/04/24 08:41:30;;;;;;;4.57;2.83;;;11.50;90.10;;;;;;5072172;28;20043;-50
2023/04/24 08:44:01;;;;;;;3.05;2.50;;;11.50;90.30;;;;;;5087461;28;20039;-47
2023/04/24 08:46:30;;;;;;;3.30;2.20;;;11.50;90.20;;;;;;5086282;28;20047;-46
2023/04/24 08:49:03;;;;;;;3.08;2.05;;;11.50;90.30;;;;;;5067016;28;20032;-47
2023/04/24 08:51:32;;;;;;;2.72;1.80;;;11.40;90.30;;;;;;5066400;28;20029;-48
2023/04/24 08:54:00;;;;;;;3.40;1.85;;;11.50;90.40;;;;;;5070078;28;20051;-47
2023/04/24 08:56:28;;;;;;;3.70;2.15;;;11.40;90.20;;;;;;5070397;28;20044;-48
2023/04/24 08:58:54;;;;;;;4.68;2.20;;;11.30;90.20;;;;;;5066244;28;20912;-47
2023/04/24 09:01:26;;;;;;;3.63;2.40;;;11.30;90.30;;;;;;5082122;28;20035;-45
2023/04/24 09:03:54;;;;;;;3.22;2.40;;;11.30;90.70;;;;;;5068676;28;20043;-46
2023/04/24 09:06:26;;;;;;;3.65;2.38;;;11.20;90.70;;;;;;5070563;28;20407;-47
2023/04/24 09:09:06;;;;;;;3.47;2.60;;;11.20;90.90;;;;;;5083388;28;20028;-49
2023/04/24 09:11:43;;;;;;;6.55;3.10;;;11.20;91.10;;;;;;5070593;28;20633;-51
2023/04/24 09:14:11;;;;;;;3.00;2.25;;;11.20;90.90;;;;;;5071421;28;20028;-56
2023/04/24 09:16:39;;;;;;;3.05;2.15;;;11.10;91.10;;;;;;5052650;28;20044;-53
2023/04/24 09:19:06;;;;;;;2.88;2.03;;;11.10;91.10;;;;;;5080872;28;20112;-52
2023/04/24 09:21:38;;;;;;;3.55;2.17;;;11.10;91.30;;;;;;5087272;28;20040;-55
2023/04/24 09:24:08;;;;;;;3.22;2.22;;;11.10;91.40;;;;;;5070348;28;20028;-52
2023/04/24 09:26:37;;;;;;;3.03;2.05;;;11.10;91.40;;;;;;5067744;28;20119;-51
2023/04/24 09:29:16;;;;;;;3.35;2.65;;;11.00;91.50;;;;;;5069559;28;20088;-48
2023/04/24 09:31:45;;;;;;;4.05;2.50;;;11.00;91.60;;;;;;5070139;28;20039;-48
2023/04/24 09:34:12;;;;;;;3.33;2.25;;;11.00;91.40;;;;;;5070217;28;20020;-50
2023/04/24 09:36:44;;;;;;;3.17;1.95;;;11.00;91.70;;;;;;5084634;28;20032;-57
2023/04/24 09:39:15;;;;;;;4.43;1.45;;;10.90;91.80;;;;;;5081083;28;20032;-55
2023/04/24 09:42:01;;;;;;;1.90;1.10;;;10.90;91.70;;;;;;5074989;28;20066;-52
2023/04/24 09:44:28;;;;;;;1.60;1.02;;;10.90;91.80;;;;;;5091244;28;20034;-50
2023/04/24 09:46:58;;;;;;;2.65;1.33;;;10.90;92.10;;;;;;5087994;28;20455;-54
2023/04/24 09:49:25;;;;;;;;;;;10.80;92.00;;;;;;5092996;28;20054;-55
2023/04/24 09:52:01;;;;;;;2.08;1.15;;;10.80;92.10;;;;;;5091123;28;19943;-52
2023/04/24 09:54:31;;;;;;;2.05;1.30;;;10.80;92.30;;;;;;5088684;28;20082;-50
2023/04/24 09:56:57;;;;;;;3.65;2.58;;;10.70;92.30;;;;;;5070407;28;20031;-52
2023/04/24 09:59:23;;;;;;;10.82;9.65;;;10.80;92.60;;;;;;5089927;28;20028;-54
2023/04/24 10:01:52;;;;;;;13.30;10.23;;;10.70;92.60;;;;;;5072307;28;20818;-52
2023/04/24 10:04:26;;;;;;;12.98;10.90;;;10.70;92.70;;;;;;5091495;28;20039;-50
2023/04/24 10:06:55;;;;;;;13.80;10.50;;;10.50;92.80;;;;;;5073143;28;20119;-52
2023/04/24 10:09:26;;;;;;;10.75;7.75;;;10.50;92.70;;;;;;5088173;28;20054;-52
2023/04/24 10:11:56;;;;;;;13.45;7.05;;;10.30;92.80;;;;;;5093507;28;20032;-49
2023/04/24 10:14:26;;;;;;;8.65;5.10;;;10.20;93.00;;;;;;5074649;28;20085;-48
2023/04/24 10:16:58;;;;;;;8.23;4.28;;;10.00;92.90;;;;;;5087377;28;20111;-47
2023/04/24 10:19:26;;;;;;;8.32;3.65;;;10.00;93.10;;;;;;5090633;28;20369;-47
2023/04/24 10:21:54;;;;;;;7.20;3.40;;;10.00;93.20;;;;;;5072718;28;20486;-46
2023/04/24 10:24:22;;;;;;;10.45;3.03;;;9.90;93.30;;;;;;5069944;28;20043;-47
2023/04/24 10:26:51;;;;;;;7.00;2.90;;;10.00;93.20;;;;;;5089863;28;20036;-47
2023/04/24 10:29:18;;;;;;;4.93;3.17;;;10.00;93.20;;;;;;5070010;28;20059;-44
2023/04/24 10:31:46;;;;;;;8.77;3.20;;;10.00;93.30;;;;;;5085509;28;20043;-47
2023/04/24 10:34:20;;;;;;;6.45;3.05;;;10.10;93.30;;;;;;5089016;28;20035;-45
2023/04/24 10:36:53;;;;;;;3.83;2.50;;;10.00;93.20;;;;;;5048934;28;20036;-47
2023/04/24 10:39:24;;;;;;;5.15;2.47;;;9.90;93.00;;;;;;5086089;28;20028;-44
2023/04/24 10:41:50;;;;;;;5.18;2.95;;;9.90;93.10;;;;;;5090113;28;20031;-45
2023/04/24 10:44:24;;;;;;;4.32;2.40;;;10.00;93.20;;;;;;5071388;28;20036;-46
2023/04/24 10:46:54;;;;;;;6.53;2.65;;;10.10;93.30;;;;;;5069127;28;20107;-45
2023/04/24 10:49:27;;;;;;;;;;;10.20;93.30;;;;;;5086315;28;20054;-45
2023/04/24 10:51:59;;;;;;;12.10;5.40;;;10.20;92.70;;;;;;5084054;28;20391;-44
2023/04/24 10:54:30;;;;;;;13.15;7.40;;;10.20;92.70;;;;;;5054611;28;20054;-45
2023/04/24 10:57:29;;;;;;;17.48;9.65;;;10.00;92.00;;;;;;5068606;28;20529;-45
2023/04/24 11:00:34;;;;;;;;;;;9.90;92.00;;;;;;5080551;28;20039;-45
2023/04/24 11:03:00;;;;;;;13.60;9.73;;;9.80;92.30;;;;;;5085474;28;19962;-44
2023/04/24 11:06:04;;;;;;;14.70;10.07;;;9.70;92.30;;;;;;5084596;28;20036;-49
2023/04/24 11:08:34;;;;;;;17.25;11.48;;;9.70;92.50;;;;;;5087479;28;20023;-44
2023/04/24 11:11:02;;;;;;;24.70;11.63;;;9.70;92.80;;;;;;5085507;28;20047;-43
2023/04/24 11:13:55;;;;;;;17.92;10.73;;;9.70;92.60;;;;;;5068234;28;20032;-44
2023/04/24 11:16:47;;;;;;;20.60;11.43;;;9.70;92.70;;;;;;5083454;28;20059;-44
2023/04/24 11:19:33;;;;;;;19.42;11.88;;;9.60;92.70;;;;;;5087024;28;20040;-43
2023/04/24 11:22:04;;;;;;;21.88;12.82;;;9.70;92.70;;;;;;5066702;28;20051;-46
2023/04/24 11:24:51;;;;;;;20.55;13.20;;;9.60;92.70;;;;;;5085713;28;20111;-47
2023/04/24 11:27:24;;;;;;;19.00;13.38;;;9.70;92.90;;;;;;5084789;28;20032;-49
2023/04/24 11:29:55;;;;;;;21.60;15.55;;;9.70;92.90;;;;;;5084150;28;20028;-47
2023/04/24 11:32:28;;;;;;;22.30;15.18;;;9.70;92.90;;;;;;5087700;28;20086;-47
2023/04/24 11:34:57;;;;;;;23.42;14.98;;;9.70;92.70;;;;;;5066538;28;20042;-47
2023/04/24 11:37:27;;;;;;;23.77;15.10;;;9.60;92.80;;;;;;5067735;28;20047;-47
2023/04/24 11:39:53;;;;;;;;;;;9.60;92.70;;;;;;5050884;28;20040;-47
2023/04/24 11:42:25;;;;;;;20.05;14.65;;;9.60;92.80;;;;;;5067800;28;19908;-47
2023/04/24 11:44:59;;;;;;;20.88;14.75;;;9.50;92.50;;;;;;5083131;28;20040;-47
2023/04/24 11:47:33;;;;;;;21.45;14.02;;;9.40;92.60;;;;;;5064882;28;21183;-50
2023/04/24 11:50:02;;;;;;;22.15;16.23;;;9.40;92.70;;;;;;5065643;28;20132;-48
2023/04/24 11:52:33;;;;;;;20.58;16.00;;;9.50;92.80;;;;;;5065640;28;20033;-50
2023/04/24 11:55:09;;;;;;;23.95;16.73;;;9.40;92.70;;;;;;5062934;28;20077;-54
2023/04/24 11:57:36;;;;;;;27.50;17.17;;;9.40;92.80;;;;;;5081116;28;20032;-56
2023/04/24 12:00:05;;;;;;;27.95;18.38;;;9.30;92.80;;;;;;5080488;28;20369;-54
2023/04/24 12:02:32;;;;;;;25.33;17.27;;;9.30;92.70;;;;;;5082091;28;20035;-53
2023/04/24 12:04:59;;;;;;;25.27;19.45;;;9.20;92.70;;;;;;5080573;28;20069;-51
2023/04/24 12:07:28;;;;;;;23.27;17.10;;;9.30;92.70;;;;;;5082652;28;20028;-52
2023/04/24 12:09:59;;;;;;;;;;;9.20;92.90;;;;;;5082197;28;20054;-54
2023/04/24 12:12:50;;;;;;;29.42;17.60;;;9.20;92.70;;;;;;5082771;28;19941;-55
2023/04/24 12:15:17;;;;;;;29.83;19.90;;;9.20;92.70;;;;;;5082667;28;20051;-56
2023/04/24 12:17:43;;;;;;;27.63;17.50;;;9.20;92.90;;;;;;5063487;28;20028;-55
2023/04/24 12:20:11;;;;;;;26.42;19.38;;;9.00;92.60;;;;;;5078010;28;20507;-57
2023/04/24 12:23:04;;;;;;;22.77;17.38;;;9.10;92.90;;;;;;5064753;28;20048;-54
2023/04/24 12:25:43;;;;;;;27.58;17.20;;;9.00;92.70;;;;;;5075253;28;20119;-53
2023/04/24 12:28:13;;;;;;;20.73;16.35;;;9.00;92.80;;;;;;5066868;28;20024;-54
2023/04/24 12:30:44;;;;;;;24.13;17.52;;;9.00;92.90;;;;;;5088509;28;20048;-53
2023/04/24 12:33:25;;;;;;;17.90;14.80;;;9.00;92.80;;;;;;5071196;28;20553;-49
2023/04/24 12:35:56;;;;;;;19.98;15.52;;;8.90;92.70;;;;;;5089486;28;20028;-51
2023/04/24 12:38:27;;;;;;;17.73;14.13;;;8.90;92.70;;;;;;5084735;28;20036;-50
2023/04/24 12:41:04;;;;;;;23.70;15.80;;;8.80;92.90;;;;;;5056863;28;20040;-52
2023/04/24 12:43:31;;;;;;;22.02;14.27;;;8.80;93.00;;;;;;5073386;28;20032;-54
2023/04/24 12:45:59;;;;;;;22.90;15.27;;;8.90;93.20;;;;;;5091278;28;20044;-51
2023/04/24 12:48:28;;;;;;;21.25;13.68;;;8.90;93.30;;;;;;5078953;28;20029;-51
2023/04/24 12:51:01;;;;;;;18.63;14.25;;;8.90;93.40;;;;;;5077615;28;20031;-53
2023/04/24 12:53:32;;;;;;;18.00;13.65;;;8.90;93.30;;;;;;5074165;28;20036;-52
2023/04/24 12:56:00;;;;;;;18.33;13.13;;;8.90;93.20;;;;;;5094198;28;20106;-51
2023/04/24 12:58:29;;;;;;;16.63;13.15;;;9.00;93.20;;;;;;5087729;28;20039;-52